Latest Coastal Weather Observations for Dunalley

IDT60701

Issued at 2:35 pm EST Tuesday 2 September 2014 (issued every 10 minutes, with the page automatically refreshed every 10 minutes)

About coastal observations | Map of coastal stations | Coastal observations for TAS | Marine services | Other Formats
Station Details ID: 094254 Name: DUNALLEY (STROUD POINT) Lat: -42.90 Lon: 147.79 Height: 12.43 m
Data from the previous 72 hours. | See also: Recent months at Dunalley
Date/Time
EST
Temp

°C
Wind Pressure Rain
since 9am
mm
Weather Cloud Vis
km
Sea
Height
m
Swell
Dir
 
Speed
knots
Gust
knots
hPa Trend Height
m
Period
s
Dir
02/02:30pm 10.3 SSW 19 22 1017.5 - 0.0 - - - - - - -
02/02:00pm 10.7 SSW 17 21 1017.3 - 0.0 - - - - - - -
02/01:30pm 10.5 SSW 16 20 1017.1 - 0.0 - - - - - - -
02/01:00pm 12.1 WSW 15 18 1017.1 - 0.0 - - - - - - -
02/12:30pm 11.1 WSW 14 17 1017.3 - 0.0 - - - - - - -
02/12:00pm 11.0 WSW 15 20 1017.5 - 0.0 - - - - - - -
02/11:30am 11.6 WSW 18 23 1017.5 - 0.0 - - - - - - -
02/11:00am 11.2 WSW 15 19 1017.5 - 0.0 - - - - - - -
02/10:30am 10.9 WSW 15 19 1017.4 - 0.0 - - - - - - -
02/10:00am 10.6 WSW 12 16 1017.3 - 0.0 - - - - - - -
02/09:30am 10.3 WSW 16 20 1017.1 - 0.0 - - - - - - -
02/09:00am 10.0 WSW 15 18 1016.8 - 9.0 - - - - - - -
02/08:30am 9.8 WSW 15 17 1016.5 - 9.0 - - - - - - -
02/08:00am 9.2 WSW 14 17 1016.5 - 9.0 - - - - - - -
02/07:30am 9.2 WSW 14 19 1016.3 - 9.0 - - - - - - -
02/07:00am 9.3 SW 11 13 1015.9 - 8.8 - - - - - - -
02/06:30am 9.1 SW 13 15 1015.5 - 8.8 - - - - - - -
02/06:00am 9.4 SW 10 12 1015.2 - 8.8 - - - - - - -
02/05:30am 9.2 SW 12 14 1014.6 - 8.8 - - - - - - -
02/05:00am 9.3 SSW 13 16 1014.2 - 8.8 - - - - - - -
02/04:30am 9.4 SSW 11 15 1013.6 - 8.8 - - - - - - -
02/04:00am 9.0 S 15 21 1013.3 - 8.8 - - - - - - -
02/03:30am 9.4 SSW 11 15 1012.9 - 8.8 - - - - - - -
02/03:00am 8.9 SSW 8 10 1012.8 - 8.8 - - - - - - -
02/02:30am 9.1 SSW 10 12 1012.6 - 8.8 - - - - - - -
02/02:00am 9.3 SSW 11 13 1012.4 - 8.8 - - - - - - -
02/01:30am 8.8 SW 6 7 1012.5 - 8.8 - - - - - - -
02/01:00am 7.7 SW 5 7 1012.2 - 8.8 - - - - - - -
02/12:30am 8.7 SW 6 9 1012.0 - 8.8 - - - - - - -
02/12:00am 8.8 SSW 8 10 1011.8 - 8.8 Recent precip. - - - - - -
 
Date/Time
EST
Temp

°C
Wind Pressure Rain
since 9am
mm
Weather Cloud Vis
km
Sea
Height
m
Swell
Dir
 
Speed
knots
Gust
knots
hPa Trend Height
m
Period
s
Dir
01/11:30pm 8.5 SSE 12 21 1011.7 - 8.8 - - - - - - -
01/11:00pm 9.3 SSW 10 12 1010.9 - 8.6 - - - - - - -
01/10:30pm 9.3 SSW 13 18 1010.8 - 8.6 - - - - - - -
01/10:00pm 9.9 SSW 12 20 1010.3 - 8.4 - - - - - - -
01/09:30pm 9.7 SSW 10 12 1010.0 - 8.4 - - - - - - -
01/09:00pm 9.7 SSW 11 14 1009.6 - 8.4 - - - - - - -
01/08:30pm 9.5 S 11 13 1009.1 - 8.4 - - - - - - -
01/08:00pm 9.9 SSW 14 18 1008.3 - 8.4 - - - - - - -
01/07:30pm 9.7 SW 13 19 1007.9 - 8.4 - - - - - - -
01/07:00pm 9.3 SW 13 15 1007.5 - 8.4 - - - - - - -
01/06:30pm 9.5 SSW 15 18 1006.9 - 8.4 - - - - - - -
01/06:00pm 9.3 SSW 15 19 1006.5 - 8.2 Rain - - - - - -
01/05:30pm 9.7 SSW 16 19 1005.4 - 7.4 - - - - - - -
01/05:00pm 9.7 SW 17 24 1004.8 - 7.2 - - - - - - -
01/04:30pm 9.8 SW 17 21 1004.3 - 6.4 - - - - - - -
01/04:00pm 10.0 WSW 16 19 1003.7 - 5.2 - - - - - - -
01/03:30pm 10.2 SW 19 23 1003.0 - 4.2 - - - - - - -
01/03:00pm 10.4 SW 18 22 1002.8 - 3.8 Recent precip. - - - - - -
01/02:30pm 10.2 SSW 20 26 1002.5 - 3.4 - - - - - - -
01/02:00pm 10.8 SW 17 21 1002.0 - 2.6 - - - - - - -
01/01:30pm 11.0 WSW 22 28 1001.4 - 1.0 - - - - - - -
01/01:20pm 11.8 WSW 21 29 1000.9 - 0.2 - - - - - - -
01/01:12pm 14.9 W 19 24 1000.9 - 0.0 - - - - - - -
01/01:00pm 16.1 NW 11 14 1000.7 - 0.0 - - - - - - -
01/12:30pm 16.6 N 11 21 1000.8 - 0.0 - - - - - - -
01/12:00pm 16.5 N 9 17 1001.2 - 0.0 - - - - - - -
01/11:30am 16.2 N 11 16 1001.6 - 0.0 - - - - - - -
01/11:00am 16.0 NNE 14 20 1002.0 - 0.0 - - - - - - -
01/10:30am 15.7 NNE 14 23 1002.0 - 0.0 - - - - - - -
01/10:00am 15.4 NNE 14 21 1002.6 - 0.0 - - - - - - -
01/09:30am 14.6 NE 15 21 1002.9 - 0.0 - - - - - - -
01/09:12am 14.5 NE 16 26 1003.4 - 0.0 - - - - - - -
01/09:00am 14.4 NNE 14 19 1003.8 - 0.0 - - - - - - -
01/08:30am 14.2 NE 15 21 1003.9 - 0.0 - - - - - - -
01/08:00am 14.1 NNE 13 19 1003.9 - 0.0 - - - - - - -
01/07:30am 14.2 NNE 15 20 1004.1 - 0.0 - - - - - - -
01/07:00am 14.4 NNE 14 17 1004.2 - 0.0 - - - - - - -
01/06:30am 14.6 NNE 14 20 1004.5 - 0.0 - - - - - - -
01/06:00am 14.3 NNE 14 22 1004.7 - 0.0 - - - - - - -
01/05:30am 13.9 NNE 13 16 1004.8 - 0.0 - - - - - - -
01/05:00am 13.7 NNE 14 21 1004.8 - 0.0 - - - - - - -
01/04:30am 13.5 NE 14 18 1005.2 - 0.0 - - - - - - -
01/04:00am 13.7 NNE 12 18 1005.6 - 0.0 - - - - - - -
01/03:30am 14.0 NNE 9 16 1006.1 - 0.0 - - - - - - -
01/03:00am 14.2 N 13 20 1006.1 - 0.0 - - - - - - -
01/02:30am 14.4 N 16 22 1006.0 - 0.0 - - - - - - -
01/02:00am 15.0 N 13 20 1006.8 - 0.0 - - - - - - -
01/01:30am 15.5 N 7 12 1007.6 - 0.0 - - - - - - -
01/01:00am 15.3 N 7 11 1007.9 - 0.0 - - - - - - -
01/12:30am 15.0 N 5 10 1008.0 - 0.0 - - - - - - -
01/12:00am 14.8 N 8 12 1008.1 - 0.0 - - - - - - -
 
Date/Time
EST
Temp

°C
Wind Pressure Rain
since 9am
mm
Weather Cloud Vis
km
Sea
Height
m
Swell
Dir
 
Speed
knots
Gust
knots
hPa Trend Height
m
Period
s
Dir
31/11:30pm 14.1 N 6 9 1008.2 - 0.0 - - - - - - -
31/11:00pm 14.6 N 10 14 1008.7 - 0.0 - - - - - - -
31/10:30pm 14.8 N 5 9 1008.9 - 0.0 - - - - - - -
31/10:00pm 14.8 NNE 2 9 1009.5 - 0.0 - - - - - - -
31/09:30pm 14.4 NNE 2 6 1009.8 - 0.0 - - - - - - -
31/09:00pm 13.9 NNE 5 7 1010.0 - 0.0 - - - - - - -
31/08:30pm 14.3 NNE 5 9 1010.2 - 0.0 - - - - - - -
31/08:00pm 14.8 NNW 2 4 1010.6 - 0.0 - - - - - - -
31/07:30pm 15.0 N 6 10 1010.6 - 0.0 - - - - - - -
31/07:00pm 15.2 N 12 16 1010.4 - 0.0 - - - - - - -
31/06:30pm 15.5 N 12 17 1010.4 - 0.0 - - - - - - -
31/06:00pm 15.8 N 11 15 1010.4 - 0.0 - - - - - - -
31/05:30pm 16.2 N 11 15 1010.6 - 0.0 - - - - - - -
31/05:00pm 15.9 NE 7 10 1010.5 - 0.0 - - - - - - -
31/04:30pm 16.3 E 6 10 1010.7 - 0.0 - - - - - - -
31/04:00pm 16.4 ENE 8 11 1010.9 - 0.0 - - - - - - -
31/03:30pm 17.1 NE 6 9 1011.1 - 0.0 - - - - - - -
31/03:00pm 18.2 NNE 4 6 1011.5 - 0.0 - - - - - - -
31/02:30pm 18.6 NE 3 7 1011.7 - 0.0 - - - - - - -
31/02:00pm 17.5 NE 6 8 1011.9 - 0.0 - - - - - - -
31/01:30pm 15.4 NE 3 5 1012.3 - 0.0 - - - - - - -
31/01:00pm 16.2 NE 2 3 1012.7 - 0.0 - - - - - - -
31/12:30pm 16.3 NE 3 7 1013.4 - 0.0 - - - - - - -
31/12:00pm 14.6 NE 3 4 1014.0 - 0.0 - - - - - - -
31/11:30am 14.4 NE 4 5 1014.4 - 0.0 - - - - - - -
31/11:00am 15.9 NE 5 8 1014.7 - 0.0 - - - - - - -
31/10:30am 15.6 ENE 5 7 1015.3 - 0.0 - - - - - - -
31/10:00am 15.1 NE 4 6 1015.7 - 0.0 - - - - - - -
31/09:30am 13.5 NE 3 4 1016.2 - 0.0 - - - - - - -
31/09:00am 13.1 NE 2 4 1016.5 - 0.0 - - - - - - -
31/08:30am 11.2 CALM 0 0 1016.7 - 0.0 - - - - - - -
31/08:00am 10.6 NE 2 5 1016.9 - 0.0 - - - - - - -
31/07:30am 10.1 NE 3 6 1017.0 - 0.0 - - - - - - -
31/07:00am 9.8 NE 1 2 1017.1 - 0.0 - - - - - - -
31/06:30am 9.5 NE 3 4 1017.0 - 0.0 - - - - - - -
31/06:00am 8.7 NE 3 5 1017.2 - 0.0 - - - - - - -
31/05:30am 9.3 NE 4 6 1017.3 - 0.0 - - - - - - -
31/05:00am 9.0 NE 4 7 1017.2 - 0.0 - - - - - - -
31/04:30am 8.7 NE 3 6 1017.5 - 0.0 - - - - - - -
31/04:00am 8.8 NE 5 8 1017.6 - 0.0 - - - - - - -
31/03:30am 10.1 ENE 4 7 1017.9 - 0.0 - - - - - - -
31/03:00am 10.0 NE 7 11 1018.2 - 0.0 - - - - - - -
31/02:30am 10.1 ENE 4 6 1018.9 - 0.0 - - - - - - -
31/02:00am 10.2 ENE 6 10 1019.0 - 0.0 - - - - - - -
31/01:30am 10.2 N 5 8 1019.4 - 0.0 - - - - - - -
31/01:00am 11.0 NE 3 7 1019.8 - 0.0 - - - - - - -
31/12:30am 11.2 N 3 8 1020.0 - 0.0 - - - - - - -
31/12:00am 10.8 N 1 3 1020.6 - 0.0 - - - - - - -
 
Date/Time
EST
Temp

°C
Wind Pressure Rain
since 9am
mm
Weather Cloud Vis
km
Sea
Height
m
Swell
Dir
 
Speed
knots
Gust
knots
hPa Trend Height
m
Period
s
Dir
30/11:30pm 11.6 N 11 18 1020.7 - 0.0 - - - - - - -
30/11:00pm 11.8 N 10 16 1021.0 - 0.0 - - - - - - -
30/10:30pm 11.8 N 10 17 1021.7 - 0.0 - - - - - - -
30/10:00pm 11.4 N 6 11 1022.3 - 0.0 - - - - - - -
30/09:30pm 10.8 NNE 9 12 1022.3 - 0.0 - - - - - - -
30/09:00pm 10.7 NNE 9 14 1022.3 - 0.0 - - - - - - -
30/08:30pm 11.2 NNE 13 16 1022.4 - 0.0 - - - - - - -
30/08:00pm 11.6 NNE 18 22 1022.3 - 0.0 - - - - - - -
30/07:30pm 11.4 NE 18 21 1022.3 - 0.0 - - - - - - -
30/07:00pm 11.4 NE 17 19 1022.5 - 0.0 - - - - - - -
30/06:30pm 11.8 NE 17 21 1022.8 - 0.0 - - - - - - -
30/06:00pm 12.0 NNE 17 22 1022.9 - 0.0 - - - - - - -
30/05:30pm 12.3 NE 15 19 1023.2 - 0.0 - - - - - - -
30/05:00pm 13.0 NE 17 21 1023.4 - 0.0 - - - - - - -
30/04:30pm 13.4 NE 20 24 1023.3 - 0.0 - - - - - - -
30/04:00pm 13.8 NE 20 24 1023.4 - 0.0 - - - - - - -
30/03:30pm 14.4 NE 19 23 1023.7 - 0.0 - - - - - - -
30/03:00pm 14.7 NE 19 24 1024.1 - 0.0 - - - - - - -

Other Formats:

Comma delimited format used in spreadsheet applications
http://www.bom.gov.au/fwo/IDT60701/IDT60701.94951.axf

JavaScript Object Notation format (JSON) in row-major order
http://www.bom.gov.au/fwo/IDT60701/IDT60701.94951.json